地図

経路データ

SID SEASON NUMBER BASIN SUBBASIN NAME ISO_TIME NATURE LAT LON WMO_WIND WMO_PRES WMO_AGENCY TRACK_TYPE DIST2LAND LANDFALL IFLAG USA_AGENCY USA_ATCF_ID USA_LAT USA_LON USA_RECORD USA_STATUS USA_WIND USA_PRES USA_SSHS USA_R34_NE USA_R34_SE USA_R34_SW USA_R34_NW USA_R50_NE USA_R50_SE USA_R50_SW USA_R50_NW USA_R64_NE USA_R64_SE USA_R64_SW USA_R64_NW USA_POCI USA_ROCI USA_RMW USA_EYE TOKYO_LAT TOKYO_LON TOKYO_GRADE TOKYO_WIND TOKYO_PRES TOKYO_R50_DIR TOKYO_R50_LONG TOKYO_R50_SHORT TOKYO_R30_DIR TOKYO_R30_LONG TOKYO_R30_SHORT TOKYO_LAND CMA_LAT CMA_LON CMA_CAT CMA_WIND CMA_PRES HKO_LAT HKO_LON HKO_CAT HKO_WIND HKO_PRES NEWDELHI_LAT NEWDELHI_LON NEWDELHI_GRADE NEWDELHI_WIND NEWDELHI_PRES NEWDELHI_CI NEWDELHI_DP NEWDELHI_POCI REUNION_LAT REUNION_LON REUNION_TYPE REUNION_WIND REUNION_PRES REUNION_TNUM REUNION_CI REUNION_RMW REUNION_R34_NE REUNION_R34_SE REUNION_R34_SW REUNION_R34_NW REUNION_R50_NE REUNION_R50_SE REUNION_R50_SW REUNION_R50_NW REUNION_R64_NE REUNION_R64_SE REUNION_R64_SW REUNION_R64_NW BOM_LAT BOM_LON BOM_TYPE BOM_WIND BOM_PRES BOM_TNUM BOM_CI BOM_RMW BOM_R34_NE BOM_R34_SE BOM_R34_SW BOM_R34_NW BOM_R50_NE BOM_R50_SE BOM_R50_SW BOM_R50_NW BOM_R64_NE BOM_R64_SE BOM_R64_SW BOM_R64_NW BOM_ROCI BOM_POCI BOM_EYE BOM_POS_METHOD BOM_PRES_METHOD NADI_LAT NADI_LON NADI_CAT NADI_WIND NADI_PRES WELLINGTON_LAT WELLINGTON_LON WELLINGTON_WIND WELLINGTON_PRES DS824_LAT DS824_LON DS824_STAGE DS824_WIND DS824_PRES TD9636_LAT TD9636_LON TD9636_STAGE TD9636_WIND TD9636_PRES TD9635_LAT TD9635_LON TD9635_WIND TD9635_PRES TD9635_ROCI NEUMANN_LAT NEUMANN_LON NEUMANN_CLASS NEUMANN_WIND NEUMANN_PRES MLC_LAT MLC_LON MLC_CLASS MLC_WIND MLC_PRES USA_GUST BOM_GUST BOM_GUST_PER REUNION_GUST REUNION_GUST_PER USA_SEAHGT USA_SEARAD_NE USA_SEARAD_SE USA_SEARAD_SW USA_SEARAD_NW STORM_SPEED STORM_DIR
1955244N24120 1955 64 WP MM NOT_NAMED 1955-08-31 18:00:00 TS 24.0000 119.800 main 50 42 __O___________ -1 24.0000 119.800 0 1002 7 26
1955244N24120 1955 64 WP MM NOT_NAMED 1955-08-31 21:00:00 TS 24.3325 119.978 main 45 45 __P___________ -1 24.3325 119.978 0 1002 8 28
1955244N24120 1955 64 WP MM NOT_NAMED 1955-09-01 00:00:00 TS 24.7000 120.200 main 51 45 __O___________ -1 24.7000 120.200 0 1002 9 31
1955244N24120 1955 64 WP MM NOT_NAMED 1955-09-01 03:00:00 TS 25.1151 120.492 main 51 45 __P___________ -1 25.1151 120.492 0 1003 10 34
1955244N24120 1955 64 WP MM NOT_NAMED 1955-09-01 06:00:00 TS 25.5000 120.800 main 59 59 __O___________ -1 25.5000 120.800 1 23 1004 8 36
1955244N24120 1955 64 WP MM NOT_NAMED 1955-09-01 09:00:00 TS 25.7722 121.028 main 78 73 __P___________ -1 25.7722 121.028 1 23 1004 7 42
1955244N24120 1955 64 WP MM NOT_NAMED 1955-09-01 12:00:00 TS 26.0000 121.300 main 89 89 __O___________ -1 26.0000 121.300 1 23 1004 8 52
1955244N24120 1955 64 WP MM NOT_NAMED 1955-09-01 15:00:00 TS 26.2501 121.720 main 123 123 __P___________ -1 26.2501 121.720 1 23 1004 10 58
1955244N24120 1955 64 WP MM NOT_NAMED 1955-09-01 18:00:00 TS 26.5000 122.200 main 157 157 __O___________ -1 26.5000 122.200 1 23 1004 11 61
1955244N24120 1955 64 WP MM NOT_NAMED 1955-09-01 21:00:00 TS 26.7876 122.799 main 204 202 __P___________ -1 26.7876 122.799 1 23 1004 9 58
1955244N24120 1955 64 WP MM NOT_NAMED 1955-09-02 00:00:00 TS 27.0000 123.100 main 207 172 __O___________ -1 27.0000 123.100 1 23 1004 4 335
1955244N24120 1955 64 WP MM NOT_NAMED 1955-09-02 03:00:00 TS 27.1135 122.633 main 166 136 __P___________ -1 27.1135 122.633 1 23 1004 10 270
1955244N24120 1955 64 WP MM NOT_NAMED 1955-09-02 06:00:00 TS 27.0000 122.000 main 139 133 __O___________ -1 27.0000 122.000 1 23 1004 9 233
1955244N24120 1955 64 WP MM NOT_NAMED 1955-09-02 09:00:00 TS 26.5446 121.787 main 146 91 __P___________ -1 26.5446 121.787 1 23 1004 10 190
1955244N24120 1955 64 WP MM NOT_NAMED 1955-09-02 12:00:00 TS 26.0000 121.800 main 91 53 __O___________ -1 26.0000 121.800 1 23 1004 9 172
1955244N24120 1955 64 WP MM NOT_NAMED 1955-09-02 15:00:00 TS 25.6249 121.925 main 53 45 __P___________ -1 25.6249 121.925 1 26 1003 7 149
1955244N24120 1955 64 WP MM NOT_NAMED 1955-09-02 18:00:00 TS 25.4000 122.200 main 49 49 __O___________ -1 25.4000 122.200 1 29 1002 6 117
1955244N24120 1955 64 WP MM NOT_NAMED 1955-09-02 21:00:00 TS 25.3472 122.532 main 60 60 __P___________ -1 25.3472 122.532 1 29 1002 7 90
1955244N24120 1955 64 WP MM NOT_NAMED 1955-09-03 00:00:00 TS 25.4000 123.000 main 110 110 __O___________ -1 25.4000 123.000 1 29 1003 10 85
1955244N24120 1955 64 WP MM NOT_NAMED 1955-09-03 03:00:00 TS 25.4282 123.665 main 176 176 __P___________ -1 25.4282 123.665 1 29 1003 12 85
1955244N24120 1955 64 WP MM NOT_NAMED 1955-09-03 06:00:00 TS 25.5000 124.300 main 237 237 __O___________ -1 25.5000 124.300 1 29 1004 10 79
1955244N24120 1955 64 WP MM NOT_NAMED 1955-09-03 09:00:00 TS 25.6121 124.720 main 279 279 __P___________ -1 25.6121 124.720 1 26 1005 6 61
1955244N24120 1955 64 WP MM NOT_NAMED 1955-09-03 12:00:00 TS 25.8000 124.900 main 304 304 __O___________ -1 25.8000 124.900 1 23 1006 5 12
1955244N24120 1955 64 WP MM NOT_NAMED 1955-09-03 15:00:00 TS 26.1074 124.833 main 306 301 __P___________ -1 26.1074 124.833 1 1006 7 336
1955244N24120 1955 64 WP MM NOT_NAMED 1955-09-03 18:00:00 TS 26.4000 124.600 main 303 292 __O___________ -1 26.4000 124.600 0 1006 6 316
1955244N24120 1955 64 WP MM NOT_NAMED 1955-09-03 21:00:00 TS 26.5300 124.372 main 292 275 __P___________ -1 26.5300 124.372 0 1006 5 294
1955244N24120 1955 64 WP MM NOT_NAMED 1955-09-04 00:00:00 TS 26.6000 124.100 main 275 260 __O___________ -1 26.6000 124.100 0 1006 5 288
1955244N24120 1955 64 WP MM NOT_NAMED 1955-09-04 03:00:00 TS 26.6901 123.805 main 261 248 __P___________ -1 26.6901 123.805 0 1007 6 290
1955244N24120 1955 64 WP MM NOT_NAMED 1955-09-04 06:00:00 TS 26.8000 123.500 main 250 __O___________ -1 26.8000 123.500 0 1008 6 292

デジタル台風データ・検索

IBTrACS Databaseについて

本データベースは、米国NOAAが公開する1842年以降の世界の熱帯低気圧のベストトラックデータアーカイブInternational Best Track Archive for Climate Stewardship (IBTrACS)を、ウェブで閲覧しやすい形式に変換したものです。

最終更新日:2021-10-08